Hakodate Airport
RJCH : now visible

Airfield :











YOU CAN JOIN US ON...

 
LOGIN :

Register | Disclaimer

   EN    FR    IT 

 









Legend :    VFR   Marginal VFR   IFR   Intensive IFR   Very Intensive IFR
Visi :
Ceiling :
>= 8 km
>= 3000ft
5 to 8 km
1000 to 3000 ft
1500m to 5 km
500 to 1000 ft
800 to 1500m
200 to 500 ft
< 800m
< 200 ft
Symbols :   Thunderstorms  Fog  Heavy snow  Heavy precipitations  Wind > 20 kt






- Airport Elevation : 151 ft
- IATA code : HKD


RJCH - Hakodate

CURRENT METAR :
  • 231800Z AUTO 31003KT 280V350 9999 FEW014 SCT020 BKN023 15/13 Q1004

EXPIRED METARs :
  • 231700Z AUTO 25007KT 8000 FEW015 OVC017 14/13 Q1004
  • 231600Z AUTO 25004KT 220V290 8000 FEW014 OVC015 14/13 Q1005
  • 231500Z AUTO 26006KT 7000 BKN014 BKN017 14/13 Q1005
  • 231400Z AUTO 25008KT 9999 BKN017 14/13 Q1005

TAF TAF RJCH
Valid from the 23 at 18:00 until the 25 at 00:00 UTC


231705Z 2318/2500 28008KT 9999 FEW008 BKN015
TEMPO 2318/2320 FEW005 BKN008
TEMPO 2320/2400 4000 -SHRA BR FEW005 BKN008
RJJJ FIR / Asia



MET'MAP, your aeronautical weather chart ! - Copyright ORBIFLY December 2007 - Disclaimer

ORBIFLY MET'MAP TEAM :

Programming & Development : Alexandra Zaïnal
Original concept : Baudouin d'Aumeries
Technical & hardware support : Manuel Goepfert
Assistance : Marc-Olivier Méhu




SOURCES & CREDITS :

   NOAA       Earth
Advisory